createdAt,value
2023-03-20T00:00:13.527Z,1.40
2023-03-20T00:01:13.521Z,1.50
2023-03-20T00:02:13.566Z,1.48
2023-03-20T00:03:13.560Z,1.58
2023-03-20T00:04:13.695Z,1.62
2023-03-20T00:05:13.551Z,1.65
2023-03-20T00:06:13.558Z,1.69
2023-03-20T00:07:13.553Z,1.77
2023-03-20T00:08:13.575Z,1.80
2023-03-20T00:09:13.569Z,1.84
2023-03-20T00:10:13.582Z,1.81
2023-03-20T00:11:13.577Z,1.84
2023-03-20T00:12:13.587Z,1.87
2023-03-20T00:13:13.590Z,1.88
2023-03-20T00:14:13.612Z,1.87
2023-03-20T00:15:13.600Z,2.02
2023-03-20T00:16:13.649Z,2.07
2023-03-20T00:17:13.609Z,2.05
2023-03-20T00:18:13.637Z,1.99
2023-03-20T00:19:13.638Z,2.06
2023-03-20T00:20:13.653Z,2.03
2023-03-20T00:21:13.635Z,2.14
2023-03-20T00:22:13.636Z,2.09
2023-03-20T00:23:13.642Z,2.09
2023-03-20T00:24:13.657Z,2.09
2023-03-20T00:25:13.702Z,2.05
2023-03-20T00:26:13.693Z,2.05
2023-03-20T00:27:13.669Z,2.07
2023-03-20T00:28:13.676Z,2.17
2023-03-20T00:29:13.675Z,2.14
2023-03-20T00:30:13.689Z,2.12
2023-03-20T00:31:13.734Z,2.07
2023-03-20T00:32:13.714Z,2.09
2023-03-20T00:33:13.776Z,2.16
2023-03-20T00:34:13.722Z,2.06
2023-03-20T00:35:13.731Z,2.10
2023-03-20T00:36:13.786Z,2.14
2023-03-20T00:37:13.733Z,2.17
2023-03-20T00:38:13.736Z,2.18
2023-03-20T00:39:13.730Z,2.03
2023-03-20T00:40:13.740Z,2.09
2023-03-20T00:41:13.746Z,1.95
2023-03-20T00:42:13.753Z,1.98
2023-03-20T00:43:13.753Z,1.86
2023-03-20T00:44:13.766Z,1.86
2023-03-20T00:45:13.765Z,1.84
2023-03-20T00:46:13.821Z,1.87
2023-03-20T00:47:13.784Z,1.81
2023-03-20T00:48:13.804Z,1.84
2023-03-20T00:49:13.793Z,1.81
2023-03-20T00:50:13.797Z,1.79
2023-03-20T00:51:13.821Z,1.80
2023-03-20T00:52:13.807Z,1.83
2023-03-20T00:53:13.821Z,1.72
2023-03-20T00:54:13.818Z,1.79
2023-03-20T00:55:13.821Z,1.86
2023-03-20T00:56:13.841Z,1.79
2023-03-20T00:57:13.841Z,1.76
2023-03-20T00:58:13.841Z,1.83
2023-03-20T00:59:13.847Z,1.86
2023-03-20T01:00:13.850Z,1.80
2023-03-20T01:01:13.879Z,1.86
2023-03-20T01:02:13.949Z,1.88
2023-03-20T01:03:13.868Z,1.87
2023-03-20T01:04:13.877Z,1.86
2023-03-20T01:05:13.878Z,1.83
2023-03-20T01:06:13.882Z,1.93
2023-03-20T01:07:13.909Z,1.83
2023-03-20T01:08:13.895Z,1.93
2023-03-20T01:09:13.899Z,1.77
2023-03-20T01:10:13.906Z,1.88
2023-03-20T01:11:13.924Z,1.84
2023-03-20T01:12:13.918Z,1.77
2023-03-20T01:13:13.918Z,1.86
2023-03-20T01:14:13.927Z,1.81
2023-03-20T01:15:13.926Z,1.83
2023-03-20T01:16:13.965Z,1.79
2023-03-20T01:17:13.936Z,1.77
2023-03-20T01:18:13.946Z,1.84
2023-03-20T01:19:13.949Z,1.88
2023-03-20T01:20:13.963Z,1.86
2023-03-20T01:21:13.959Z,1.83
2023-03-20T01:22:13.968Z,1.87
2023-03-20T01:23:13.997Z,1.80
2023-03-20T01:24:13.983Z,1.90
2023-03-20T01:25:13.980Z,1.90
2023-03-20T01:26:13.989Z,1.76
2023-03-20T01:27:13.995Z,1.72
2023-03-20T01:28:14.002Z,1.83
2023-03-20T01:29:14.003Z,1.86
2023-03-20T01:30:14.011Z,1.77
2023-03-20T01:31:14.012Z,1.86
2023-03-20T01:32:14.025Z,1.86
2023-03-20T01:33:14.078Z,1.80
2023-03-20T01:34:14.030Z,1.80
2023-03-20T01:35:14.035Z,1.73
2023-03-20T01:36:14.085Z,1.79
2023-03-20T01:37:14.054Z,1.81
2023-03-20T01:38:14.058Z,1.73
2023-03-20T01:39:14.075Z,1.70
2023-03-20T01:40:14.067Z,1.63
2023-03-20T01:41:14.068Z,1.63
2023-03-20T01:42:14.078Z,1.55
2023-03-20T01:43:14.082Z,1.60
2023-03-20T01:44:14.090Z,1.52
2023-03-20T01:45:14.091Z,1.50
2023-03-20T01:46:14.175Z,1.40
2023-03-20T01:47:14.118Z,1.47
2023-03-20T01:48:14.114Z,1.45
2023-03-20T01:49:14.116Z,1.42
2023-03-20T01:50:14.132Z,1.44
2023-03-20T01:51:14.125Z,1.50
2023-03-20T01:52:14.136Z,1.50
2023-03-20T01:53:14.135Z,1.45
2023-03-20T01:54:14.149Z,1.50
2023-03-20T01:55:14.171Z,1.55
2023-03-20T01:56:14.157Z,1.58
2023-03-20T01:57:14.162Z,1.58
2023-03-20T01:58:14.170Z,1.69
2023-03-20T01:59:14.172Z,1.63
2023-03-20T02:00:14.180Z,1.72
2023-03-20T02:01:14.192Z,1.66
2023-03-20T02:02:14.193Z,1.66
2023-03-20T02:03:14.196Z,1.70
2023-03-20T02:04:14.207Z,1.66
2023-03-20T02:05:14.223Z,1.69
2023-03-20T02:06:14.214Z,1.69
2023-03-20T02:07:14.211Z,1.68
2023-03-20T02:08:14.225Z,1.70
2023-03-20T02:09:14.227Z,1.72
2023-03-20T02:10:14.235Z,1.77
2023-03-20T02:11:14.284Z,1.63
2023-03-20T02:12:14.246Z,1.66
2023-03-20T02:13:14.243Z,1.68
2023-03-20T02:14:14.252Z,1.62
2023-03-20T02:15:14.260Z,1.69
2023-03-20T02:16:14.263Z,1.70
2023-03-20T02:17:14.268Z,1.66
2023-03-20T02:18:14.275Z,1.69
2023-03-20T02:19:14.274Z,1.66
2023-03-20T02:20:14.290Z,1.70
2023-03-20T02:21:14.285Z,1.66
2023-03-20T02:22:14.297Z,1.73
2023-03-20T02:23:14.297Z,1.69
2023-03-20T02:24:14.307Z,1.77
2023-03-20T02:25:14.307Z,1.72
2023-03-20T02:26:14.320Z,1.73
2023-03-20T02:27:14.356Z,1.77
2023-03-20T02:28:14.328Z,1.80
2023-03-20T02:29:14.330Z,1.79
2023-03-20T02:30:14.349Z,1.81
2023-03-20T02:31:14.420Z,1.83
2023-03-20T02:32:14.349Z,1.79
2023-03-20T02:33:14.374Z,1.80
2023-03-20T02:34:14.357Z,1.83
2023-03-20T02:35:14.362Z,1.79
2023-03-20T02:36:14.476Z,1.83
2023-03-20T02:37:14.373Z,1.81
2023-03-20T02:38:14.382Z,1.80
2023-03-20T02:39:14.382Z,1.84
2023-03-20T02:40:14.391Z,1.79
2023-03-20T02:41:14.408Z,1.83
2023-03-20T02:42:14.409Z,1.83
2023-03-20T02:43:14.423Z,1.77
2023-03-20T02:44:14.411Z,1.80
2023-03-20T02:45:14.418Z,1.77
2023-03-20T02:46:14.527Z,1.79
2023-03-20T02:47:14.429Z,1.86
2023-03-20T02:48:14.433Z,1.83
2023-03-20T02:49:14.435Z,1.80
2023-03-20T02:50:14.461Z,1.87
2023-03-20T02:51:14.447Z,1.80
2023-03-20T02:52:14.458Z,1.88
2023-03-20T02:53:14.463Z,1.79
2023-03-20T02:54:14.475Z,1.87
2023-03-20T02:55:14.471Z,1.86
2023-03-20T02:56:14.499Z,1.83
2023-03-20T02:57:14.489Z,1.84
2023-03-20T02:58:14.504Z,1.79
2023-03-20T02:59:14.512Z,1.84
2023-03-20T03:00:14.500Z,1.68
2023-03-20T03:01:14.586Z,1.66
2023-03-20T03:02:14.575Z,1.63
2023-03-20T03:03:14.518Z,1.66
2023-03-20T03:04:14.528Z,1.63
2023-03-20T03:05:14.530Z,1.66
2023-03-20T03:06:14.576Z,1.70
2023-03-20T03:07:14.536Z,1.66
2023-03-20T03:08:14.550Z,1.72
2023-03-20T03:09:17.264Z,1.76
2023-03-20T03:10:14.559Z,1.69
2023-03-20T03:11:14.569Z,1.70
2023-03-20T03:12:14.570Z,1.66
2023-03-20T03:13:14.570Z,1.59
2023-03-20T03:14:14.592Z,1.48
2023-03-20T03:15:14.596Z,1.51
2023-03-20T03:16:14.595Z,1.51
2023-03-20T03:17:14.594Z,1.51
2023-03-20T03:18:14.610Z,1.47
2023-03-20T03:19:14.608Z,1.50
2023-03-20T03:20:14.623Z,1.65
2023-03-20T03:21:14.616Z,1.60
2023-03-20T03:22:14.632Z,1.60
2023-03-20T03:23:14.624Z,1.62
2023-03-20T03:24:14.631Z,1.65
2023-03-20T03:25:14.642Z,1.58
2023-03-20T03:26:14.672Z,1.52
2023-03-20T03:27:14.647Z,1.55
2023-03-20T03:28:14.658Z,1.52
2023-03-20T03:29:14.655Z,1.55
2023-03-20T03:30:14.684Z,1.55
2023-03-20T03:31:14.702Z,1.66
2023-03-20T03:32:14.676Z,1.69
2023-03-20T03:33:14.835Z,1.60
2023-03-20T03:34:14.706Z,1.60
2023-03-20T03:35:14.692Z,1.60
2023-03-20T03:36:14.729Z,1.77
2023-03-20T03:37:14.698Z,1.76
2023-03-20T03:38:14.709Z,1.66
2023-03-20T03:39:14.710Z,1.69
2023-03-20T03:40:14.720Z,1.80
2023-03-20T03:41:14.743Z,1.77
2023-03-20T03:42:14.740Z,1.84
2023-03-20T03:43:14.730Z,1.87
2023-03-20T03:44:14.754Z,1.83
2023-03-20T03:45:14.752Z,1.77
2023-03-20T03:46:14.764Z,1.76
2023-03-20T03:47:14.770Z,1.79
2023-03-20T03:48:14.762Z,1.77
2023-03-20T03:49:14.774Z,1.86
2023-03-20T03:50:14.770Z,1.73
2023-03-20T03:51:14.785Z,1.51
2023-03-20T03:52:14.786Z,1.44
2023-03-20T03:53:14.788Z,1.52
2023-03-20T03:54:14.798Z,1.44
2023-03-20T03:55:14.793Z,1.45
2023-03-20T03:56:14.848Z,1.51
2023-03-20T03:57:14.812Z,1.44
2023-03-20T03:58:14.819Z,1.50
2023-03-20T03:59:14.829Z,1.51
2023-03-20T04:00:14.826Z,1.63
2023-03-20T04:01:14.833Z,1.58
2023-03-20T04:02:14.896Z,1.63
2023-03-20T04:03:14.867Z,1.68
2023-03-20T04:04:14.940Z,1.70
2023-03-20T04:05:14.851Z,1.72
2023-03-20T04:06:14.877Z,1.70
2023-03-20T04:07:14.869Z,1.70
2023-03-20T04:08:14.871Z,1.68
2023-03-20T04:09:14.874Z,1.69
2023-03-20T04:10:14.888Z,1.58
2023-03-20T04:11:14.889Z,1.48
2023-03-20T04:12:14.894Z,1.48
2023-03-20T04:13:14.900Z,1.45
2023-03-20T04:14:14.905Z,1.45
2023-03-20T04:15:14.911Z,1.50
2023-03-20T04:16:14.969Z,1.45
2023-03-20T04:17:14.922Z,1.48
2023-03-20T04:18:14.925Z,1.52
2023-03-20T04:19:14.966Z,1.65
2023-03-20T04:20:14.977Z,1.60
2023-03-20T04:21:14.979Z,1.68
2023-03-20T04:22:14.958Z,1.63
2023-03-20T04:23:14.975Z,1.70
2023-03-20T04:24:14.958Z,1.79
2023-03-20T04:25:14.972Z,1.70
2023-03-20T04:26:14.989Z,1.70
2023-03-20T04:27:14.989Z,1.76
2023-03-20T04:28:14.982Z,1.83
2023-03-20T04:29:14.990Z,1.80
2023-03-20T04:30:14.990Z,1.84
2023-03-20T04:31:15.044Z,1.79
2023-03-20T04:32:15.001Z,1.84
2023-03-20T04:33:15.117Z,1.83
2023-03-20T04:34:15.025Z,1.83
2023-03-20T04:35:15.078Z,1.81
2023-03-20T04:36:15.122Z,1.83
2023-03-20T04:37:15.031Z,1.91
2023-03-20T04:38:15.034Z,1.86
2023-03-20T04:39:15.041Z,1.84
2023-03-20T04:40:15.045Z,1.93
2023-03-20T04:41:15.056Z,1.87
2023-03-20T04:42:15.078Z,1.83
2023-03-20T04:43:15.061Z,1.86
2023-03-20T04:44:15.072Z,1.86
2023-03-20T04:45:15.078Z,1.88
2023-03-20T04:46:15.106Z,1.81
2023-03-20T04:47:15.085Z,1.83
2023-03-20T04:48:15.095Z,1.81
2023-03-20T04:49:15.095Z,1.81
2023-03-20T04:50:15.146Z,1.86
2023-03-20T04:51:15.130Z,1.84
2023-03-20T04:52:15.109Z,1.88
2023-03-20T04:53:15.121Z,1.87
2023-03-20T04:54:15.127Z,1.76
2023-03-20T04:55:15.143Z,1.76
2023-03-20T04:56:15.157Z,1.80
2023-03-20T04:57:15.142Z,1.90
2023-03-20T04:58:15.144Z,1.99
2023-03-20T04:59:15.151Z,1.87
2023-03-20T05:00:15.152Z,1.88
2023-03-20T05:01:15.214Z,1.90
2023-03-20T05:02:15.204Z,1.80
2023-03-20T05:03:15.174Z,1.84
2023-03-20T05:04:15.211Z,1.84
2023-03-20T05:05:15.188Z,1.86
2023-03-20T05:06:15.191Z,1.80
2023-03-20T05:07:15.215Z,1.76
2023-03-20T05:08:15.195Z,1.77
2023-03-20T05:09:15.206Z,1.66
2023-03-20T05:10:15.215Z,1.72
2023-03-20T05:11:15.218Z,1.69
2023-03-20T05:12:15.219Z,1.69
2023-03-20T05:13:15.228Z,1.65
2023-03-20T05:14:15.227Z,1.55
2023-03-20T05:15:15.241Z,1.51
2023-03-20T05:16:15.301Z,1.54
2023-03-20T05:17:15.247Z,1.54
2023-03-20T05:18:15.252Z,1.51
2023-03-20T05:19:15.298Z,1.44
2023-03-20T05:20:15.257Z,1.41
2023-03-20T05:21:15.269Z,1.40
2023-03-20T05:22:15.278Z,1.30
2023-03-20T05:23:15.298Z,1.29
2023-03-20T05:24:15.277Z,1.23
2023-03-20T05:25:15.295Z,1.27
2023-03-20T05:26:15.290Z,1.26
2023-03-20T05:27:15.303Z,1.26
2023-03-20T05:28:15.298Z,1.22
2023-03-20T05:29:15.310Z,1.20
2023-03-20T05:30:15.318Z,1.30
2023-03-20T05:31:15.425Z,1.30
2023-03-20T05:32:15.320Z,1.37
2023-03-20T05:33:15.448Z,1.40
2023-03-20T05:34:15.331Z,1.32
2023-03-20T05:35:15.350Z,1.41
2023-03-20T05:36:15.419Z,1.34
2023-03-20T05:37:15.356Z,1.37
2023-03-20T05:38:15.352Z,1.40
2023-03-20T05:39:15.397Z,1.42
2023-03-20T05:40:15.361Z,1.40
2023-03-20T05:41:15.369Z,1.42
2023-03-20T05:42:15.375Z,1.36
2023-03-20T05:43:15.376Z,1.33
2023-03-20T05:44:15.390Z,1.34
2023-03-20T05:45:15.388Z,1.33
2023-03-20T05:46:15.451Z,1.30
2023-03-20T05:47:15.404Z,1.37
2023-03-20T05:48:15.401Z,1.32
2023-03-20T05:49:15.408Z,1.32
2023-03-20T05:50:15.417Z,1.27
2023-03-20T05:51:15.427Z,1.30
2023-03-20T05:52:15.422Z,1.44
2023-03-20T05:53:15.430Z,1.32
2023-03-20T05:54:15.451Z,1.42
2023-03-20T05:55:15.455Z,1.48
2023-03-20T05:56:15.448Z,1.54
2023-03-20T05:57:15.452Z,1.50
2023-03-20T05:58:15.457Z,1.51
2023-03-20T05:59:15.491Z,1.59
2023-03-20T06:00:15.462Z,1.55
2023-03-20T06:01:15.473Z,1.68
2023-03-20T06:02:15.523Z,1.62
2023-03-20T06:03:15.553Z,1.68
2023-03-20T06:04:15.486Z,1.77
2023-03-20T06:05:15.490Z,1.80
2023-03-20T06:06:15.492Z,1.83
2023-03-20T06:07:15.500Z,1.88
2023-03-20T06:08:15.502Z,1.86
2023-03-20T06:09:15.511Z,1.90
2023-03-20T06:10:15.528Z,1.90
2023-03-20T06:11:15.550Z,2.03
2023-03-20T06:12:15.528Z,2.05
2023-03-20T06:13:15.533Z,2.06
2023-03-20T06:14:15.544Z,1.95
2023-03-20T06:15:15.559Z,2.00
2023-03-20T06:16:15.618Z,2.03
2023-03-20T06:17:15.561Z,2.09
2023-03-20T06:18:15.554Z,2.09
2023-03-20T06:19:15.570Z,2.03
2023-03-20T06:20:15.577Z,2.03
2023-03-20T06:21:15.580Z,2.10
2023-03-20T06:22:15.574Z,2.17
2023-03-20T06:23:15.593Z,2.14
2023-03-20T06:24:15.584Z,2.24
2023-03-20T06:25:15.602Z,2.27
2023-03-20T06:26:15.596Z,2.24
2023-03-20T06:27:15.624Z,2.18
2023-03-20T06:28:15.606Z,2.16
2023-03-20T06:29:15.620Z,2.18
2023-03-20T06:30:15.631Z,2.24
2023-03-20T06:31:15.675Z,2.25
2023-03-20T06:32:15.629Z,2.25
2023-03-20T06:33:15.665Z,2.17
2023-03-20T06:34:15.637Z,2.14
2023-03-20T06:35:15.642Z,2.21
2023-03-20T06:36:15.662Z,2.09
2023-03-20T06:37:15.656Z,2.07
2023-03-20T06:38:15.658Z,2.12
2023-03-20T06:39:15.666Z,2.09
2023-03-20T06:40:15.669Z,2.06
2023-03-20T06:41:24.538Z,2.00
2023-03-20T06:42:16.308Z,2.06
2023-03-20T06:43:15.716Z,1.95
2023-03-20T06:44:15.686Z,1.86
2023-03-20T06:45:15.700Z,1.76
2023-03-20T06:46:15.745Z,1.68
2023-03-20T06:47:15.712Z,1.72
2023-03-20T06:48:15.709Z,1.73
2023-03-20T06:49:15.717Z,1.72
2023-03-20T06:50:15.733Z,1.73
2023-03-20T06:51:15.752Z,1.77
2023-03-20T06:52:15.731Z,1.84
2023-03-20T06:53:15.741Z,1.77
2023-03-20T06:54:15.743Z,1.91
2023-03-20T06:55:15.761Z,2.09
2023-03-20T06:56:15.773Z,2.10
2023-03-20T06:57:15.761Z,2.09
2023-03-20T06:58:15.776Z,2.17
2023-03-20T06:59:15.793Z,2.12
2023-03-20T07:00:15.771Z,2.27
2023-03-20T07:01:15.790Z,2.18
2023-03-20T07:02:15.786Z,2.12
2023-03-20T07:03:15.793Z,1.87
2023-03-20T07:04:15.796Z,1.77
2023-03-20T07:05:15.926Z,1.63
2023-03-20T07:06:15.814Z,1.68
2023-03-20T07:07:15.819Z,1.68
2023-03-20T07:08:15.830Z,1.81
2023-03-20T07:09:15.896Z,1.83
2023-03-20T07:10:15.834Z,1.87
2023-03-20T07:11:15.843Z,1.90
2023-03-20T07:12:15.855Z,1.93
2023-03-20T07:13:15.852Z,2.06
2023-03-20T07:14:15.872Z,2.10
2023-03-20T07:15:15.896Z,2.23
2023-03-20T07:16:15.897Z,2.38
2023-03-20T07:17:15.877Z,2.48
2023-03-20T07:18:15.878Z,2.54
2023-03-20T07:19:15.887Z,2.72
2023-03-20T07:20:15.891Z,2.85
2023-03-20T07:21:15.914Z,2.89
2023-03-20T07:22:15.905Z,2.96
2023-03-20T07:23:15.913Z,3.00
2023-03-20T07:24:15.915Z,3.08
2023-03-20T07:25:15.921Z,3.17
2023-03-20T07:26:15.926Z,3.32
2023-03-20T07:27:15.932Z,3.39
2023-03-20T07:28:15.945Z,3.45
2023-03-20T07:29:15.948Z,3.48
2023-03-20T07:30:15.952Z,3.48
2023-03-20T07:31:16.031Z,3.52
2023-03-20T07:32:15.971Z,3.68
2023-03-20T07:33:15.993Z,3.69
2023-03-20T07:34:15.974Z,3.66
2023-03-20T07:35:15.978Z,3.36
2023-03-20T07:36:15.985Z,3.14
2023-03-20T07:37:15.994Z,3.14
2023-03-20T07:38:15.999Z,3.21
2023-03-20T07:39:16.012Z,3.08
2023-03-20T07:40:16.007Z,2.77
2023-03-20T07:41:16.018Z,2.61
2023-03-20T07:42:16.020Z,2.60
2023-03-20T07:43:16.032Z,2.72
2023-03-20T07:44:16.032Z,2.77
2023-03-20T07:45:16.042Z,2.78
2023-03-20T07:46:16.123Z,2.56
2023-03-20T07:47:16.117Z,2.45
2023-03-20T07:48:16.063Z,2.57
2023-03-20T07:49:16.107Z,2.57
2023-03-20T07:50:16.086Z,2.52
2023-03-20T07:51:16.104Z,2.75
2023-03-20T07:52:16.077Z,2.92
2023-03-20T07:53:16.100Z,3.03
2023-03-20T07:54:16.093Z,2.95
2023-03-20T07:55:18.378Z,2.97
2023-03-20T07:56:16.105Z,3.11
2023-03-20T07:57:16.121Z,3.23
2023-03-20T07:58:16.112Z,3.20
2023-03-20T07:59:16.118Z,3.26
2023-03-20T08:00:16.124Z,3.31
2023-03-20T08:01:16.132Z,3.18
2023-03-20T08:02:16.135Z,3.42
2023-03-20T08:03:16.298Z,3.39
2023-03-20T08:04:16.183Z,3.29
2023-03-20T08:05:16.154Z,3.39
2023-03-20T08:06:16.157Z,3.43
2023-03-20T08:07:16.185Z,3.52
2023-03-20T08:08:16.183Z,3.50
2023-03-20T08:09:16.182Z,3.70
2023-03-20T08:10:16.183Z,3.57
2023-03-20T08:11:16.195Z,3.65
2023-03-20T08:12:16.197Z,3.79
2023-03-20T08:13:16.202Z,3.79
2023-03-20T08:14:16.208Z,3.91
2023-03-20T08:15:16.219Z,3.97
2023-03-20T08:16:16.267Z,3.97
2023-03-20T08:17:19.403Z,4.05
2023-03-20T08:18:16.233Z,4.05
2023-03-20T08:19:16.270Z,3.66
2023-03-20T08:20:16.249Z,3.55
2023-03-20T08:21:16.277Z,3.76
2023-03-20T08:22:16.262Z,3.61
2023-03-20T08:23:16.580Z,3.88
2023-03-20T08:24:16.288Z,3.65
2023-03-20T08:25:16.283Z,3.68
2023-03-20T08:26:16.286Z,3.84
2023-03-20T08:27:16.295Z,3.93
2023-03-20T08:28:16.306Z,4.00
2023-03-20T08:29:16.305Z,3.68
2023-03-20T08:30:16.315Z,3.75
2023-03-20T08:31:16.460Z,3.39
2023-03-20T08:32:16.331Z,3.40
2023-03-20T08:33:16.397Z,3.51
2023-03-20T08:34:16.348Z,3.60
2023-03-20T08:35:31.907Z,3.87
2023-03-20T08:36:16.418Z,4.06
2023-03-20T08:37:16.354Z,4.24
2023-03-20T08:38:16.364Z,4.12
2023-03-20T08:39:16.398Z,4.18
2023-03-20T08:40:16.378Z,4.23
2023-03-20T08:41:16.382Z,4.37
2023-03-20T08:42:16.404Z,4.34
2023-03-20T08:43:16.407Z,4.42
2023-03-20T08:44:16.423Z,4.30
2023-03-20T08:45:16.406Z,4.22
2023-03-20T08:46:16.558Z,4.09
2023-03-20T08:47:16.426Z,4.09
2023-03-20T08:48:16.430Z,4.14
2023-03-20T08:49:16.431Z,4.15
2023-03-20T08:50:16.441Z,4.12
2023-03-20T08:51:16.494Z,4.24
2023-03-20T08:52:16.452Z,4.27
2023-03-20T08:53:16.583Z,4.32
2023-03-20T08:54:16.467Z,4.33
2023-03-20T08:55:16.478Z,4.41
2023-03-20T08:56:16.479Z,4.70
2023-03-20T08:57:16.503Z,4.33
2023-03-20T08:58:16.502Z,4.52
2023-03-20T08:59:16.504Z,4.54
2023-03-20T09:00:16.511Z,4.54
2023-03-20T09:01:16.563Z,4.73
2023-03-20T09:02:16.659Z,4.75
2023-03-20T09:03:16.599Z,4.84
2023-03-20T09:04:16.542Z,4.86
2023-03-20T09:05:16.533Z,4.63
2023-03-20T09:06:16.544Z,4.82
2023-03-20T09:07:16.608Z,4.86
2023-03-20T09:08:16.599Z,4.66
2023-03-20T09:09:16.564Z,4.52
2023-03-20T09:10:16.577Z,4.29
2023-03-20T09:11:16.582Z,4.67
2023-03-20T09:12:16.587Z,4.66
2023-03-20T09:13:26.842Z,4.23
2023-03-20T09:14:16.608Z,4.34
2023-03-20T09:15:16.613Z,4.41
2023-03-20T09:16:16.650Z,4.32
2023-03-20T09:17:16.629Z,4.36
2023-03-20T09:18:16.637Z,4.72
2023-03-20T09:19:16.632Z,4.97
2023-03-20T09:20:16.642Z,5.07
2023-03-20T09:21:16.643Z,4.92
2023-03-20T09:22:16.657Z,4.78
2023-03-20T09:23:16.679Z,4.92
2023-03-20T09:24:16.687Z,5.00
2023-03-20T09:25:16.702Z,4.96
2023-03-20T09:26:16.681Z,4.86
2023-03-20T09:27:16.702Z,5.13
2023-03-20T09:28:16.699Z,5.39
2023-03-20T09:29:16.704Z,5.24
2023-03-20T09:30:16.707Z,5.18
2023-03-20T09:31:16.739Z,5.46
2023-03-20T09:32:16.724Z,5.61
2023-03-20T09:33:16.808Z,5.53
2023-03-20T09:34:16.754Z,5.49
2023-03-20T09:35:16.739Z,5.49
2023-03-20T09:36:16.780Z,5.64
2023-03-20T09:37:16.755Z,5.65
2023-03-20T09:38:16.764Z,5.36
2023-03-20T09:39:16.789Z,5.54
2023-03-20T09:40:16.779Z,5.28
2023-03-20T09:41:16.784Z,5.35
2023-03-20T09:42:16.794Z,5.43
2023-03-20T09:43:16.794Z,5.76
2023-03-20T09:44:16.813Z,5.42
2023-03-20T09:45:16.808Z,5.20
2023-03-20T09:46:16.851Z,5.17
2023-03-20T09:47:20.750Z,5.22
2023-03-20T09:48:16.840Z,5.39
2023-03-20T09:49:16.838Z,5.35
2023-03-20T09:50:16.853Z,5.61
2023-03-20T09:51:16.851Z,5.56
2023-03-20T09:52:16.863Z,5.43
2023-03-20T09:53:16.877Z,5.64
2023-03-20T09:54:16.877Z,6.04
2023-03-20T09:55:17.107Z,5.94
2023-03-20T09:56:16.894Z,6.15
2023-03-20T09:57:16.894Z,5.72
2023-03-20T09:58:16.904Z,5.85
2023-03-20T09:59:16.910Z,6.03
2023-03-20T10:00:16.919Z,6.52
2023-03-20T10:01:16.926Z,6.36
2023-03-20T10:02:17.020Z,5.89
2023-03-20T10:03:16.939Z,5.81
2023-03-20T10:04:16.989Z,5.76
2023-03-20T10:05:16.955Z,5.60
2023-03-20T10:06:16.970Z,5.60
2023-03-20T10:07:16.970Z,5.71
2023-03-20T10:08:17.055Z,5.86
2023-03-20T10:09:16.989Z,6.04
2023-03-20T10:10:16.995Z,6.11
2023-03-20T10:11:17.014Z,6.22
2023-03-20T10:12:17.009Z,6.49
2023-03-20T10:13:17.016Z,6.71
2023-03-20T10:14:17.029Z,6.48
2023-03-20T10:15:17.027Z,6.34
2023-03-20T10:16:17.059Z,6.55
2023-03-20T10:17:17.044Z,6.51
2023-03-20T10:18:17.059Z,6.76
2023-03-20T10:19:17.059Z,7.13
2023-03-20T10:20:17.070Z,7.12
2023-03-20T10:21:17.077Z,6.85
2023-03-20T10:22:17.088Z,7.16
2023-03-20T10:23:17.137Z,7.10
2023-03-20T10:24:17.105Z,6.97
2023-03-20T10:25:17.105Z,6.98
2023-03-20T10:26:17.132Z,6.59
2023-03-20T10:27:17.141Z,6.33
2023-03-20T10:28:17.134Z,6.30
2023-03-20T10:29:17.137Z,6.03
2023-03-20T10:30:17.150Z,6.37
2023-03-20T10:31:17.284Z,6.70
2023-03-20T10:32:17.172Z,6.61
2023-03-20T10:33:17.237Z,6.12
2023-03-20T10:34:17.182Z,6.00
2023-03-20T10:35:17.194Z,6.31
2023-03-20T10:36:17.197Z,6.40
2023-03-20T10:37:17.197Z,7.05
2023-03-20T10:38:17.212Z,7.28
2023-03-20T10:39:17.221Z,7.31
2023-03-20T10:40:17.227Z,7.58
2023-03-20T10:41:17.234Z,7.35
2023-03-20T10:42:17.244Z,7.10
2023-03-20T10:43:17.275Z,6.73
2023-03-20T10:44:17.261Z,6.85
2023-03-20T10:45:17.267Z,7.40
2023-03-20T10:46:17.457Z,7.58
2023-03-20T10:47:17.489Z,7.80
2023-03-20T10:48:17.297Z,7.93
2023-03-20T10:49:17.299Z,8.10
2023-03-20T10:50:17.310Z,7.87
2023-03-20T10:51:17.322Z,7.52
2023-03-20T10:52:17.325Z,7.45
2023-03-20T10:53:17.334Z,7.52
2023-03-20T10:54:17.371Z,7.71
2023-03-20T10:55:17.349Z,7.83
2023-03-20T10:56:17.361Z,6.95
2023-03-20T10:57:17.363Z,6.12
2023-03-20T10:58:17.392Z,6.66
2023-03-20T10:59:17.416Z,6.54
2023-03-20T11:00:17.401Z,6.11
2023-03-20T11:01:17.428Z,5.81
2023-03-20T11:02:17.410Z,5.85
2023-03-20T11:03:17.482Z,5.99
2023-03-20T11:04:17.579Z,6.56
2023-03-20T11:05:17.456Z,6.98
2023-03-20T11:06:17.453Z,7.13
2023-03-20T11:07:17.450Z,6.97
2023-03-20T11:08:17.468Z,7.13
2023-03-20T11:09:17.467Z,7.82
2023-03-20T11:10:17.577Z,7.61
2023-03-20T11:11:17.483Z,7.39
2023-03-20T11:12:17.494Z,7.43
2023-03-20T11:13:17.516Z,7.79
2023-03-20T11:14:17.510Z,7.25
2023-03-20T11:15:17.537Z,6.89
2023-03-20T11:16:17.534Z,5.64
2023-03-20T11:17:17.534Z,5.51
2023-03-20T11:18:17.546Z,5.65
2023-03-20T11:19:17.572Z,6.00
2023-03-20T11:20:17.565Z,6.09
2023-03-20T11:21:17.566Z,6.43
2023-03-20T11:22:17.579Z,6.80
2023-03-20T11:23:17.584Z,6.66
2023-03-20T11:24:17.595Z,6.87
2023-03-20T11:25:17.599Z,7.05
2023-03-20T11:26:17.611Z,7.20
2023-03-20T11:27:17.632Z,7.15
2023-03-20T11:28:17.631Z,7.23
2023-03-20T11:29:17.635Z,7.23
2023-03-20T11:30:17.828Z,7.23
2023-03-20T11:31:17.668Z,7.27
2023-03-20T11:32:17.689Z,7.30
2023-03-20T11:33:17.757Z,7.21
2023-03-20T11:34:17.684Z,7.16
2023-03-20T11:35:17.686Z,7.30
2023-03-20T11:36:17.703Z,7.77
2023-03-20T11:37:17.710Z,8.22
2023-03-20T11:38:17.714Z,8.66
2023-03-20T11:39:17.722Z,8.71
2023-03-20T11:40:17.729Z,8.83
2023-03-20T11:41:17.735Z,9.28
2023-03-20T11:42:17.745Z,9.13
2023-03-20T11:43:17.756Z,8.99
2023-03-20T11:44:17.762Z,9.10
2023-03-20T11:45:17.775Z,9.17
2023-03-20T11:46:17.808Z,9.18
2023-03-20T11:47:17.803Z,9.01
2023-03-20T11:48:17.817Z,8.79
2023-03-20T11:49:17.806Z,9.26
2023-03-20T11:50:17.818Z,9.54
2023-03-20T11:51:17.820Z,9.81
2023-03-20T11:52:17.836Z,9.89
2023-03-20T11:53:17.849Z,9.57
2023-03-20T11:54:17.855Z,9.50
2023-03-20T11:55:17.865Z,9.14
2023-03-20T11:56:17.879Z,8.36
2023-03-20T11:57:17.881Z,7.95
2023-03-20T11:58:17.909Z,8.25
2023-03-20T11:59:17.897Z,8.59
2023-03-20T12:00:17.915Z,8.80
2023-03-20T12:01:17.927Z,8.76
2023-03-20T12:02:17.971Z,8.59
2023-03-20T12:03:17.999Z,8.91
2023-03-20T12:04:17.960Z,8.44
2023-03-20T12:05:17.960Z,8.65
2023-03-20T12:06:17.978Z,8.28
2023-03-20T12:07:17.981Z,8.47
2023-03-20T12:08:18.009Z,7.58
2023-03-20T12:09:18.009Z,7.83
2023-03-20T12:10:18.011Z,8.23
2023-03-20T12:11:18.046Z,8.80
2023-03-20T12:12:18.031Z,9.29
2023-03-20T12:13:18.069Z,8.91
2023-03-20T12:14:18.050Z,8.38
2023-03-20T12:15:18.073Z,8.99
2023-03-20T12:16:18.130Z,8.38
2023-03-20T12:17:18.079Z,8.00
2023-03-20T12:18:18.092Z,8.47
2023-03-20T12:19:18.145Z,8.28
2023-03-20T12:20:18.109Z,8.73
2023-03-20T12:21:18.133Z,9.24
2023-03-20T12:22:18.153Z,9.23
2023-03-20T12:23:18.144Z,9.36
2023-03-20T12:24:18.151Z,9.05
2023-03-20T12:25:18.157Z,8.74
2023-03-20T12:26:18.168Z,9.01
2023-03-20T12:27:18.177Z,8.62
2023-03-20T12:28:18.206Z,8.81
2023-03-20T12:29:18.200Z,8.76
2023-03-20T12:30:18.209Z,9.24
2023-03-20T12:31:18.268Z,9.33
2023-03-20T12:32:18.229Z,9.26
2023-03-20T12:33:18.305Z,9.39
2023-03-20T12:34:18.262Z,9.96
2023-03-20T12:35:18.276Z,10.09
2023-03-20T12:36:18.273Z,10.48
2023-03-20T12:37:18.307Z,10.86
2023-03-20T12:38:18.294Z,11.00
2023-03-20T12:39:18.301Z,10.56
2023-03-20T12:40:18.319Z,9.81
2023-03-20T12:41:18.326Z,9.89
2023-03-20T12:42:18.336Z,9.71
2023-03-20T12:43:18.359Z,10.22
2023-03-20T12:44:18.380Z,10.29
2023-03-20T12:45:18.367Z,10.51
2023-03-20T12:46:18.444Z,9.74
2023-03-20T12:47:18.390Z,9.24
2023-03-20T12:48:18.408Z,9.35
2023-03-20T12:49:18.410Z,9.79
2023-03-20T12:50:18.427Z,9.96
2023-03-20T12:51:18.472Z,10.15
2023-03-20T12:52:18.451Z,10.02
2023-03-20T12:53:18.457Z,9.24
2023-03-20T12:54:18.461Z,9.50
2023-03-20T12:55:18.472Z,9.47
2023-03-20T12:56:18.496Z,9.78
2023-03-20T12:57:18.502Z,10.01
2023-03-20T12:58:18.531Z,9.99
2023-03-20T12:59:18.557Z,10.22
2023-03-20T13:00:18.533Z,9.96
2023-03-20T13:01:18.602Z,9.89
2023-03-20T13:02:18.570Z,9.74
2023-03-20T13:03:18.656Z,10.07
2023-03-20T13:04:18.583Z,10.34
2023-03-20T13:05:18.586Z,10.36
2023-03-20T13:06:18.601Z,9.75
2023-03-20T13:07:18.630Z,9.97
2023-03-20T13:08:18.635Z,10.38
2023-03-20T13:09:18.639Z,9.87
2023-03-20T13:10:18.639Z,9.65
2023-03-20T13:11:18.656Z,9.89
2023-03-20T13:12:18.662Z,10.14
2023-03-20T13:13:18.682Z,10.70
2023-03-20T13:14:18.685Z,10.48
2023-03-20T13:15:21.198Z,10.25
2023-03-20T13:16:18.720Z,10.18
2023-03-20T13:17:18.727Z,10.23